KDAG/DAG METAR and TAF weather

Enter ICAO airport designator
Station Type Date Time Source
KDAG METAR 2022/01/23 10:50 UTC NOAA

KDAG 231050Z AUTO 18006KT 10SM CLR 08/M09 A3022 RMK AO2 SLP225 T00831094


Station Type Date Time Source
KDAG Decoded METAR 2022/01/23 10:50 UTC NOAA

BARSTOW-DAGGETT AIRPORT, CA, United States (KDAG) 34-51N 116-47W 587M
Jan 23, 2022 - 05:50 AM EST / 2022.01.23 1050 UTC
Wind: from the S (180 degrees) at 7 MPH (6 KT):0
Visibility: 10 mile(s):0
Sky conditions: clear
Temperature: 46.9 F (8.3 C)
Dew Point: 15.1 F (-9.4 C)
Relative Humidity: 27%
Pressure (altimeter): 30.22 in. Hg (1023 hPa)
ob: KDAG 231050Z AUTO 18006KT 10SM CLR 08/M09 A3022 RMK AO2 SLP225 T00831094
cycle: 11

Station Type Date Time Source
KDAG TAF 2022/01/23 12:22 UTC NOAA

TAF KDAG 231120Z 2312/2412 VRB06KT P6SM SKC
FM231500 27007KT P6SM SKC
FM232100 35006KT P6SM SKC
FM240300 26008KT P6SM SKC

Example: see airport list